Time;durP1;ratioP1;P1;durP2;ratioP2;P2;SDS_P1;SDS_P2;PMS_P1;PMS_P2;Temp;Humidity;BMP_temperature;BMP_pressure;BME280_temperature;BME280_humidity;BME280_pressure;Samples;Min_cycle;Max_cycle;Signal;HPM_P1;HPM_P2
2021/10/12 00:01:08;;;;;;;8.18;3.15;;;12.80;99.40;;;;;;5002831;28;20036;-92
2021/10/12 00:03:34;;;;;;;8.52;2.88;;;12.80;99.40;;;;;;5018765;28;20112;-91
2021/10/12 00:06:00;;;;;;;6.47;2.65;;;12.70;99.60;;;;;;5035226;28;20096;-90
2021/10/12 00:08:26;;;;;;;7.90;3.08;;;12.70;99.50;;;;;;5006887;28;20056;-90
2021/10/12 00:10:51;;;;;;;9.13;2.90;;;12.70;99.60;;;;;;5009761;28;20024;-90
2021/10/12 00:13:17;;;;;;;9.45;3.08;;;12.70;99.60;;;;;;5008626;28;20029;-90
2021/10/12 00:15:44;;;;;;;7.82;2.50;;;12.70;99.60;;;;;;5018256;28;20022;-87
2021/10/12 00:18:10;;;;;;;7.95;2.85;;;12.60;99.70;;;;;;5021824;28;20118;-87
2021/10/12 00:20:36;;;;;;;10.63;3.00;;;12.60;99.80;;;;;;5034327;28;20063;-87
2021/10/12 00:23:04;;;;;;;6.47;2.70;;;12.60;99.80;;;;;;5002911;28;20033;-91
2021/10/12 00:25:30;;;;;;;8.05;3.03;;;12.60;99.80;;;;;;5018743;28;20065;-91
2021/10/12 00:27:59;;;;;;;5.93;2.83;;;12.60;99.80;;;;;;5018158;28;20053;-89
2021/10/12 00:30:27;;;;;;;8.43;2.47;;;12.60;99.90;;;;;;5001700;28;20026;-89
2021/10/12 00:32:56;;;;;;;8.23;2.08;;;12.60;99.90;;;;;;5011050;28;20033;-89
2021/10/12 00:35:22;;;;;;;7.97;1.88;;;12.60;99.90;;;;;;5002109;28;20029;-89
2021/10/12 00:37:48;;;;;;;7.13;2.17;;;12.60;99.90;;;;;;5018116;28;20470;-86
2021/10/12 00:40:14;;;;;;;12.73;2.38;;;12.50;99.90;;;;;;5017109;28;20036;-86
2021/10/12 00:42:40;;;;;;;9.05;2.38;;;12.50;99.90;;;;;;5000828;28;20441;-87
2021/10/12 00:45:10;;;;;;;9.63;1.95;;;12.50;99.90;;;;;;5017636;28;20026;-87
2021/10/12 00:47:36;;;;;;;9.95;2.35;;;12.40;99.90;;;;;;5002362;28;20029;-87
2021/10/12 00:50:05;;;;;;;6.38;2.72;;;12.40;99.90;;;;;;5015228;28;20014;-86
2021/10/12 00:52:31;;;;;;;7.30;2.33;;;12.40;99.90;;;;;;5047139;28;20050;-87
2021/10/12 00:54:56;;;;;;;8.60;3.28;;;12.40;99.90;;;;;;5015077;28;20038;-86
2021/10/12 00:57:22;;;;;;;10.05;2.60;;;12.40;99.90;;;;;;5007876;28;20030;-90
2021/10/12 00:59:49;;;;;;;14.18;3.40;;;12.30;99.90;;;;;;5005661;28;20360;-90
2021/10/12 01:02:16;;;;;;;7.97;2.50;;;12.30;99.90;;;;;;5014448;28;20037;-90
2021/10/12 01:04:42;;;;;;;7.32;2.58;;;12.30;99.90;;;;;;4989652;28;20023;-89
2021/10/12 01:07:08;;;;;;;8.60;2.30;;;12.20;99.90;;;;;;5009060;28;20036;-87
2021/10/12 01:09:34;;;;;;;9.27;2.80;;;12.20;99.90;;;;;;4985071;28;20029;-87
2021/10/12 01:12:00;;;;;;;11.02;2.72;;;12.20;99.90;;;;;;4984849;28;20472;-87
2021/10/12 01:14:27;;;;;;;8.93;2.78;;;12.20;99.90;;;;;;4994222;28;20053;-86
2021/10/12 01:16:53;;;;;;;8.63;2.70;;;12.20;99.90;;;;;;4985364;28;20032;-86
2021/10/12 01:19:19;;;;;;;8.68;3.05;;;12.20;99.90;;;;;;4997451;28;20116;-87
2021/10/12 01:21:48;;;;;;;8.75;2.72;;;12.10;99.90;;;;;;4993772;28;20023;-86
2021/10/12 01:24:15;;;;;;;7.68;3.42;;;12.10;99.90;;;;;;5003956;28;20502;-87
2021/10/12 01:26:42;;;;;;;10.20;2.78;;;12.10;99.90;;;;;;5011318;28;20072;-86
2021/10/12 01:29:10;;;;;;;9.45;2.95;;;12.10;99.90;;;;;;5002224;28;20030;-86
2021/10/12 01:31:37;;;;;;;9.30;3.10;;;12.10;99.90;;;;;;5013711;28;20075;-87
2021/10/12 01:34:15;;;;;;;9.90;3.47;;;12.10;99.90;;;;;;4987081;28;20022;-86
2021/10/12 01:36:42;;;;;;;5.90;2.90;;;12.10;99.90;;;;;;5003268;28;20030;-89
2021/10/12 01:39:08;;;;;;;7.38;3.00;;;12.10;99.90;;;;;;4998969;28;20037;-88
2021/10/12 01:41:35;;;;;;;7.85;3.45;;;12.00;99.90;;;;;;4999222;28;20132;-89
2021/10/12 01:44:01;;;;;;;6.72;3.00;;;12.10;99.90;;;;;;4999536;28;20033;-89
2021/10/12 01:46:27;;;;;;;9.27;3.50;;;12.10;99.90;;;;;;4982874;28;20034;-88
2021/10/12 01:48:53;;;;;;;10.75;4.03;;;12.00;99.90;;;;;;4988305;28;20081;-88
2021/10/12 01:51:20;;;;;;;11.00;4.00;;;12.00;99.90;;;;;;4978512;28;20546;-88
2021/10/12 01:53:46;;;;;;;8.50;4.10;;;12.00;99.90;;;;;;5008005;28;20022;-89
2021/10/12 01:56:12;;;;;;;9.88;4.32;;;12.00;99.90;;;;;;4988044;28;20582;-88
2021/10/12 01:58:38;;;;;;;11.38;5.63;;;12.00;99.90;;;;;;5014782;28;20112;-88
2021/10/12 02:01:04;;;;;;;10.60;4.30;;;12.00;99.90;;;;;;5010108;28;20040;-88
2021/10/12 02:03:30;;;;;;;9.05;4.35;;;12.00;99.90;;;;;;5023785;28;20031;-90
2021/10/12 02:05:56;;;;;;;9.20;4.25;;;12.00;99.90;;;;;;5003263;28;20042;-90
2021/10/12 02:08:22;;;;;;;8.98;4.03;;;12.00;99.90;;;;;;5012576;28;20041;-90
2021/10/12 02:10:48;;;;;;;11.32;4.38;;;12.00;99.90;;;;;;4996656;28;20018;-88
2021/10/12 02:13:14;;;;;;;9.75;4.82;;;12.00;99.90;;;;;;5004211;28;20033;-89
2021/10/12 02:15:40;;;;;;;14.25;4.65;;;12.00;99.90;;;;;;5012208;28;20030;-89
2021/10/12 02:18:06;;;;;;;12.70;4.90;;;12.00;99.90;;;;;;5016389;28;20095;-89
2021/10/12 02:20:32;;;;;;;11.80;4.60;;;12.00;99.90;;;;;;5015546;28;20038;-88
2021/10/12 02:22:57;;;;;;;8.40;4.30;;;12.00;99.90;;;;;;5002512;28;20036;-89
2021/10/12 02:25:23;;;;;;;12.55;4.65;;;11.90;99.90;;;;;;5025480;28;20030;-86
2021/10/12 02:27:49;;;;;;;8.85;4.10;;;11.90;99.90;;;;;;5000812;28;20514;-89
2021/10/12 02:30:15;;;;;;;9.90;4.35;;;11.90;99.90;;;;;;5022058;28;20021;-89
2021/10/12 02:32:41;;;;;;;8.23;4.38;;;11.90;99.90;;;;;;5013969;28;20172;-89
2021/10/12 02:35:07;;;;;;;9.23;4.28;;;12.00;99.90;;;;;;5004309;28;20080;-89
2021/10/12 02:37:33;;;;;;;12.50;4.50;;;12.00;99.90;;;;;;5032768;28;20025;-89
2021/10/12 02:39:59;;;;;;;11.73;4.30;;;12.00;99.90;;;;;;5018463;28;20494;-89
2021/10/12 02:42:25;;;;;;;12.85;4.00;;;12.00;99.90;;;;;;5017571;28;20387;-89
2021/10/12 02:44:51;;;;;;;8.43;3.50;;;12.00;99.90;;;;;;5025985;28;20435;-90
2021/10/12 02:47:16;;;;;;;8.77;3.42;;;12.00;99.90;;;;;;5031340;28;20053;-87
2021/10/12 02:49:42;;;;;;;10.48;3.83;;;12.00;99.90;;;;;;5024208;28;20030;-90
2021/10/12 02:52:07;;;;;;;8.10;3.40;;;12.00;99.90;;;;;;5020336;28;20060;-86
2021/10/12 02:54:35;;;;;;;9.55;3.33;;;12.00;99.90;;;;;;5003303;28;20030;-87
2021/10/12 02:57:00;;;;;;;11.90;3.15;;;12.00;99.90;;;;;;5019936;28;20066;-87
2021/10/12 02:59:26;;;;;;;7.00;2.50;;;12.00;99.90;;;;;;5018541;28;20021;-90
2021/10/12 03:01:52;;;;;;;9.48;2.60;;;12.00;99.90;;;;;;5040735;28;20028;-91
2021/10/12 03:04:18;;;;;;;8.60;2.63;;;12.00;99.90;;;;;;5011997;28;20063;-91
2021/10/12 03:06:55;;;;;;;6.82;2.58;;;12.00;99.90;;;;;;5020418;28;20034;-90
2021/10/12 03:09:26;;;;;;;10.65;2.22;;;12.00;99.90;;;;;;5035876;28;20037;-90
2021/10/12 03:11:52;;;;;;;8.75;2.88;;;11.90;99.90;;;;;;5008264;28;20025;-89
2021/10/12 03:14:26;;;;;;;11.32;2.92;;;12.00;99.90;;;;;;5036178;28;20029;-90
2021/10/12 03:16:52;;;;;;;7.25;2.30;;;12.00;99.90;;;;;;5068337;28;20013;-89
2021/10/12 03:19:18;;;;;;;8.20;2.63;;;11.90;99.90;;;;;;5053514;28;20029;-90
2021/10/12 03:21:53;;;;;;;5.95;2.20;;;11.90;99.90;;;;;;5027068;28;20371;-90
2021/10/12 03:24:19;;;;;;;5.30;2.10;;;11.90;99.90;;;;;;5020056;28;20120;-89
2021/10/12 03:26:45;;;;;;;6.57;2.20;;;11.90;99.90;;;;;;5027005;28;20057;-88
2021/10/12 03:29:11;;;;;;;8.90;2.08;;;11.90;99.90;;;;;;5020415;28;20055;-90
2021/10/12 03:31:37;;;;;;;5.85;2.05;;;11.90;99.90;;;;;;5006136;28;20467;-90
2021/10/12 03:34:02;;;;;;;6.60;1.73;;;11.80;99.90;;;;;;5011940;28;20120;-90
2021/10/12 03:36:28;;;;;;;6.47;1.88;;;11.90;99.90;;;;;;5024577;28;20053;-90
2021/10/12 03:38:54;;;;;;;7.82;1.92;;;11.80;99.90;;;;;;5038311;28;20053;-90
2021/10/12 03:41:19;;;;;;;9.77;2.10;;;11.80;99.90;;;;;;5000109;28;20030;-89
2021/10/12 03:43:45;;;;;;;9.18;1.90;;;11.80;99.90;;;;;;5022671;28;20036;-89
2021/10/12 03:46:12;;;;;;;5.20;1.73;;;11.80;99.90;;;;;;5012534;28;20040;-89
2021/10/12 03:48:38;;;;;;;7.75;1.77;;;11.80;99.90;;;;;;5020700;28;20025;-89
2021/10/12 03:51:07;;;;;;;5.32;1.73;;;11.80;99.90;;;;;;5003151;28;20112;-90
2021/10/12 03:53:33;;;;;;;6.75;1.20;;;11.80;99.90;;;;;;5015728;28;20026;-90
2021/10/12 03:55:59;;;;;;;5.47;1.33;;;11.70;99.90;;;;;;5039772;28;20075;-90
2021/10/12 03:58:25;;;;;;;14.98;1.73;;;11.80;99.90;;;;;;5039002;28;20029;-90
2021/10/12 04:00:50;;;;;;;7.05;1.70;;;11.80;99.90;;;;;;5010706;28;20033;-90
2021/10/12 04:03:16;;;;;;;6.35;1.13;;;11.70;99.90;;;;;;5003029;28;20037;-90
2021/10/12 04:05:42;;;;;;;4.45;1.50;;;11.70;99.90;;;;;;5047271;28;20025;-90
2021/10/12 04:08:08;;;;;;;5.00;1.33;;;11.70;99.90;;;;;;5002427;28;20179;-89
2021/10/12 04:10:34;;;;;;;8.48;2.00;;;11.70;99.90;;;;;;5018828;28;20036;-89
2021/10/12 04:13:01;;;;;;;6.63;1.33;;;11.70;99.90;;;;;;5019510;28;20104;-89
2021/10/12 04:15:27;;;;;;;5.82;1.30;;;11.70;99.90;;;;;;5023600;28;20044;-90
2021/10/12 04:18:10;;;;;;;7.38;1.48;;;11.70;99.90;;;;;;5039875;28;20532;-90
2021/10/12 04:20:36;;;;;;;5.38;1.40;;;11.80;99.90;;;;;;5017840;28;20145;-89
2021/10/12 04:23:02;;;;;;;8.85;1.83;;;11.70;99.90;;;;;;5063767;28;20020;-89
2021/10/12 04:25:28;;;;;;;3.75;1.65;;;11.80;99.90;;;;;;5012981;28;20093;-90
2021/10/12 04:27:55;;;;;;;6.72;1.75;;;11.70;99.90;;;;;;5031087;28;20037;-90
2021/10/12 04:30:21;;;;;;;6.57;1.67;;;11.70;99.90;;;;;;5026073;28;20045;-89
2021/10/12 04:32:47;;;;;;;9.45;2.00;;;11.70;99.90;;;;;;5038186;28;20021;-89
2021/10/12 04:35:12;;;;;;;8.05;1.95;;;11.70;99.90;;;;;;5010344;28;20135;-86
2021/10/12 04:37:38;;;;;;;8.52;1.95;;;11.70;99.90;;;;;;5031392;28;20068;-86
2021/10/12 04:40:04;;;;;;;7.65;2.08;;;11.70;99.90;;;;;;5018783;28;20029;-87
2021/10/12 04:42:30;;;;;;;5.63;1.80;;;11.70;99.90;;;;;;5019138;28;20032;-86
2021/10/12 04:44:58;;;;;;;7.03;1.90;;;11.70;99.90;;;;;;5027916;28;20017;-86
2021/10/12 04:47:23;;;;;;;5.50;2.15;;;11.70;99.90;;;;;;5019988;28;20026;-86
2021/10/12 04:50:42;;;;;;;10.48;3.20;;;11.70;99.90;;;;;;5018560;28;20022;-89
2021/10/12 04:53:07;;;;;;;6.82;2.20;;;11.60;99.90;;;;;;5025211;28;20390;-91
2021/10/12 04:55:33;;;;;;;12.85;2.60;;;11.70;99.90;;;;;;5004190;28;20500;-90
2021/10/12 04:57:59;;;;;;;9.63;2.10;;;11.60;99.90;;;;;;5018953;28;20023;-89
2021/10/12 05:00:25;;;;;;;5.95;1.88;;;11.60;99.90;;;;;;5025029;28;20121;-89
2021/10/12 05:02:50;;;;;;;9.45;2.17;;;11.60;99.90;;;;;;5030244;28;20128;-89
2021/10/12 05:05:16;;;;;;;5.25;1.77;;;11.60;99.90;;;;;;5020105;28;20021;-90
2021/10/12 05:07:41;;;;;;;6.85;2.15;;;11.60;99.90;;;;;;5019089;28;20021;-89
2021/10/12 05:10:08;;;;;;;7.85;1.80;;;11.60;99.90;;;;;;5002702;28;20025;-89
2021/10/12 05:12:34;;;;;;;9.88;1.95;;;11.60;99.90;;;;;;5021878;28;20035;-90
2021/10/12 05:14:59;;;;;;;8.02;2.08;;;11.60;99.90;;;;;;5042266;28;20017;-90
2021/10/12 05:17:32;;;;;;;8.85;2.05;;;11.70;99.90;;;;;;5014376;28;20124;-89
2021/10/12 05:19:58;;;;;;;5.28;2.10;;;11.70;99.90;;;;;;5019005;28;20037;-88
2021/10/12 05:22:23;;;;;;;8.30;2.05;;;11.70;99.90;;;;;;5013270;28;20025;-88
2021/10/12 05:24:49;;;;;;;8.40;2.50;;;11.60;99.90;;;;;;5024527;28;20017;-88
2021/10/12 05:27:15;;;;;;;5.80;1.80;;;11.60;99.90;;;;;;5005344;28;20033;-87
2021/10/12 05:29:40;;;;;;;7.38;2.03;;;11.60;99.90;;;;;;5017476;28;20409;-88
2021/10/12 05:32:06;;;;;;;5.05;2.00;;;11.60;99.90;;;;;;5017337;28;20120;-88
2021/10/12 05:34:32;;;;;;;7.60;1.90;;;11.60;99.90;;;;;;5016648;28;20028;-88
2021/10/12 05:36:59;;;;;;;5.75;2.47;;;11.60;99.90;;;;;;5033656;28;20108;-86
2021/10/12 05:39:24;;;;;;;8.98;2.20;;;11.70;99.90;;;;;;5013820;28;20063;-88
2021/10/12 05:42:05;;;;;;;8.10;2.10;;;11.70;99.90;;;;;;5017369;28;20026;-88
2021/10/12 05:44:31;;;;;;;7.43;2.40;;;11.70;99.90;;;;;;5024285;28;20029;-88
2021/10/12 05:46:57;;;;;;;7.45;2.40;;;11.70;99.90;;;;;;5019006;28;20025;-89
2021/10/12 05:49:22;;;;;;;9.30;2.60;;;11.70;99.90;;;;;;5019202;28;20130;-89
2021/10/12 05:51:52;;;;;;;5.25;2.30;;;11.70;99.90;;;;;;5017607;28;20076;-89
2021/10/12 05:54:20;;;;;;;7.70;3.10;;;11.70;99.90;;;;;;5017592;28;20025;-88
2021/10/12 05:59:12;;;;;;;7.15;2.70;;;11.70;99.90;;;;;;5033643;28;20075;-88
2021/10/12 06:01:41;;;;;;;7.18;3.00;;;11.70;99.90;;;;;;5000457;28;20022;-88
2021/10/12 06:04:10;;;;;;;5.75;3.05;;;11.80;99.90;;;;;;5000382;28;20060;-89
2021/10/12 06:06:36;;;;;;;11.05;3.85;;;11.80;99.90;;;;;;5020663;28;20020;-89
2021/10/12 06:09:10;;;;;;;7.65;3.83;;;11.70;99.90;;;;;;5037006;28;20076;-88
2021/10/12 06:11:36;;;;;;;8.93;4.05;;;11.70;99.90;;;;;;5035485;28;20116;-89
2021/10/12 06:14:02;;;;;;;11.90;4.47;;;11.80;99.90;;;;;;5032992;28;20026;-91
2021/10/12 06:16:27;;;;;;;12.10;4.25;;;11.70;99.90;;;;;;5042135;28;20040;-88
2021/10/12 06:18:55;;;;;;;8.45;4.20;;;11.70;99.90;;;;;;5008168;28;20213;-88
2021/10/12 06:21:21;;;;;;;13.27;6.03;;;11.80;99.90;;;;;;5000194;28;20116;-88
2021/10/12 06:23:47;;;;;;;7.88;4.53;;;11.80;99.90;;;;;;5034510;28;20049;-88
2021/10/12 06:26:12;;;;;;;14.80;6.03;;;11.80;99.90;;;;;;4998940;28;20091;-87
2021/10/12 06:28:38;;;;;;;12.98;6.15;;;11.80;99.90;;;;;;5023885;28;20025;-88
2021/10/12 06:31:06;;;;;;;9.55;6.00;;;11.80;99.90;;;;;;5010980;28;20025;-87
2021/10/12 06:33:33;;;;;;;12.50;6.90;;;11.80;99.90;;;;;;5017763;28;20370;-88
2021/10/12 06:35:59;;;;;;;11.27;6.65;;;11.80;99.90;;;;;;5018829;28;20486;-91
2021/10/12 06:38:24;;;;;;;15.05;7.55;;;11.80;99.90;;;;;;5020353;28;20044;-92
2021/10/12 06:40:51;;;;;;;12.38;7.80;;;11.80;99.90;;;;;;5025975;28;20385;-87
2021/10/12 06:43:17;;;;;;;14.88;8.10;;;11.80;99.90;;;;;;5023567;28;20466;-87
2021/10/12 06:45:44;;;;;;;10.35;7.53;;;11.80;99.90;;;;;;5037004;28;20028;-88
2021/10/12 06:48:09;;;;;;;13.27;7.35;;;11.80;99.90;;;;;;5011509;28;20029;-87
2021/10/12 06:50:35;;;;;;;13.30;8.38;;;11.80;99.90;;;;;;5018422;28;20374;-88
2021/10/12 06:53:03;;;;;;;13.57;7.72;;;11.80;99.90;;;;;;5017796;28;20061;-88
2021/10/12 06:55:29;;;;;;;11.38;7.43;;;11.90;99.90;;;;;;5033729;28;20041;-88
2021/10/12 06:57:54;;;;;;;10.55;7.70;;;11.90;99.90;;;;;;5016100;28;20100;-88
2021/10/12 07:00:20;;;;;;;11.18;7.05;;;11.90;99.90;;;;;;4999213;28;20438;-88
2021/10/12 07:02:47;;;;;;;11.60;7.03;;;11.90;99.90;;;;;;5015641;28;20057;-88
2021/10/12 07:08:35;;;;;;;10.55;6.80;;;12.00;99.90;;;;;;5033846;28;20040;-92
2021/10/12 07:11:00;;;;;;;10.88;7.03;;;12.00;99.90;;;;;;5017592;28;20026;-89
2021/10/12 07:13:29;;;;;;;10.48;6.82;;;12.00;99.90;;;;;;5034918;28;20022;-90
2021/10/12 07:15:56;;;;;;;12.73;7.60;;;12.00;99.90;;;;;;5022535;28;20063;-90
2021/10/12 07:18:22;;;;;;;12.95;8.30;;;12.10;99.90;;;;;;5019689;28;20087;-93
2021/10/12 07:20:48;;;;;;;12.38;8.25;;;12.10;99.90;;;;;;5037818;28;20029;-93
2021/10/12 07:23:14;;;;;;;10.80;7.93;;;12.10;99.90;;;;;;5015863;28;20025;-93
2021/10/12 07:25:39;;;;;;;18.92;9.90;;;12.10;99.90;;;;;;5020138;28;20497;-93
2021/10/12 07:28:06;;;;;;;14.88;8.70;;;12.10;99.90;;;;;;5024927;28;20017;-92
2021/10/12 07:30:32;;;;;;;12.48;8.40;;;12.10;99.90;;;;;;5030937;28;20114;-94
2021/10/12 07:32:57;;;;;;;14.68;8.40;;;12.10;99.90;;;;;;5022634;28;20014;-93
2021/10/12 07:35:23;;;;;;;14.77;9.95;;;12.20;99.90;;;;;;5028368;28;20029;-92
2021/10/12 07:37:49;;;;;;;14.95;9.43;;;12.20;99.90;;;;;;5038977;28;20021;-92
2021/10/12 07:40:15;;;;;;;14.07;9.93;;;12.20;99.90;;;;;;5022836;28;20029;-92
2021/10/12 07:42:40;;;;;;;13.10;8.73;;;12.20;99.90;;;;;;5010400;28;20051;-92
2021/10/12 07:45:07;;;;;;;12.35;8.25;;;12.20;99.90;;;;;;5019588;28;20017;-92
2021/10/12 07:47:33;;;;;;;13.38;9.30;;;12.20;99.90;;;;;;5019912;28;20124;-92
2021/10/12 07:50:03;;;;;;;14.13;8.32;;;12.20;99.90;;;;;;5025043;28;20112;-91
2021/10/12 07:52:31;;;;;;;12.65;8.23;;;12.30;99.90;;;;;;5009520;28;20031;-88
2021/10/12 07:55:12;;;;;;;12.10;7.75;;;12.30;99.90;;;;;;5031043;28;20029;-88
2021/10/12 08:00:44;;;;;;;17.90;8.90;;;12.30;99.90;;;;;;5043992;28;20323;-88
2021/10/12 08:03:11;;;;;;;12.77;8.98;;;12.30;99.90;;;;;;5007271;28;20462;-87
2021/10/12 08:05:38;;;;;;;14.43;8.30;;;12.30;99.90;;;;;;5018674;28;20475;-88
2021/10/12 08:08:06;;;;;;;14.10;8.60;;;12.30;99.90;;;;;;5018870;28;20076;-89
2021/10/12 08:10:37;;;;;;;12.57;8.20;;;12.30;99.90;;;;;;5027482;22;20137;-90
2021/10/12 08:13:10;;;;;;;12.13;7.80;;;12.30;99.90;;;;;;5018964;28;20033;-90
2021/10/12 08:15:38;;;;;;;13.73;8.82;;;12.40;99.90;;;;;;5018678;28;20026;-90
2021/10/12 08:18:03;;;;;;;11.82;7.85;;;12.40;99.90;;;;;;5002760;28;20108;-90
2021/10/12 08:20:29;;;;;;;16.15;9.90;;;12.40;99.90;;;;;;4997902;28;20014;-91
2021/10/12 08:22:55;;;;;;;13.35;8.55;;;12.40;99.90;;;;;;5023498;28;20029;-90
2021/10/12 08:25:21;;;;;;;12.25;7.70;;;12.40;99.90;;;;;;5004002;28;20026;-90
2021/10/12 08:27:47;;;;;;;13.02;7.78;;;12.40;99.90;;;;;;5012006;28;20087;-90
2021/10/12 08:30:16;;;;;;;11.93;8.57;;;12.50;99.90;;;;;;4998200;28;20040;-91
2021/10/12 08:32:43;;;;;;;11.88;8.82;;;12.50;99.90;;;;;;5011633;28;20121;-89
2021/10/12 08:35:27;;;;;;;11.93;8.57;;;12.50;99.90;;;;;;5016997;28;20076;-88
2021/10/12 08:37:53;;;;;;;13.32;8.35;;;12.50;99.90;;;;;;5018337;28;20030;-91
2021/10/12 08:40:18;;;;;;;12.85;8.65;;;12.50;99.90;;;;;;4998557;28;20030;-87
2021/10/12 08:42:52;;;;;;;10.85;8.32;;;12.50;99.90;;;;;;4998877;28;20016;-85
2021/10/12 08:45:21;;;;;;;12.57;8.00;;;12.50;99.90;;;;;;5015029;28;20463;-87
2021/10/12 08:47:51;;;;;;;13.05;8.23;;;12.50;99.90;;;;;;5016120;28;20013;-91
2021/10/12 08:50:22;;;;;;;12.35;8.50;;;12.50;99.90;;;;;;5016977;28;20028;-90
2021/10/12 08:53:27;;;;;;;13.30;8.98;;;12.50;99.90;;;;;;5000225;28;20041;-91
2021/10/12 08:56:07;;;;;;;13.25;7.78;;;12.50;99.90;;;;;;5016776;28;20123;-91
2021/10/12 08:58:36;;;;;;;11.20;7.35;;;12.50;99.90;;;;;;5018373;28;20033;-91
2021/10/12 09:01:22;;;;;;;11.95;8.10;;;12.50;99.90;;;;;;5018145;28;20025;-91
2021/10/12 09:04:07;;;;;;;12.10;7.72;;;12.50;99.90;;;;;;4987601;28;20040;-91
2021/10/12 09:07:00;;;;;;;12.98;8.55;;;12.50;99.90;;;;;;5016855;28;20033;-91
2021/10/12 09:09:42;;;;;;;11.93;8.00;;;12.50;99.90;;;;;;5028927;28;20040;-91
2021/10/12 09:16:10;;;;;;;13.38;7.97;;;12.50;99.90;;;;;;4994381;28;19917;-91
2021/10/12 09:19:13;;;;;;;10.45;7.32;;;12.60;99.90;;;;;;4994055;28;20034;-90
2021/10/12 09:25:16;;;;;;;13.38;8.43;;;12.50;99.90;;;;;;4985800;28;20026;-94
2021/10/12 09:28:34;;;;;;;16.08;9.48;;;12.60;99.90;;;;;;4978576;28;20149;-93
2021/10/12 09:31:14;;;;;;;12.18;8.70;;;12.50;99.90;;;;;;4993282;28;20046;-93
2021/10/12 09:38:32;;;;;;;13.77;8.20;;;12.60;99.90;;;;;;4988401;28;20210;-91
2021/10/12 09:44:29;;;;;;;16.27;8.85;;;12.60;99.90;;;;;;4967709;28;20038;-90
2021/10/12 09:50:40;;;;;;;14.13;9.57;;;12.70;99.90;;;;;;4978723;28;20037;-89
2021/10/12 09:59:55;;;;;;;14.32;9.35;;;12.80;99.90;;;;;;4959560;28;20034;-91
2021/10/12 10:02:50;;;;;;;17.70;10.00;;;12.80;99.90;;;;;;4950262;28;20067;-91
2021/10/12 10:05:25;;;;;;;12.27;8.27;;;12.80;99.90;;;;;;4927238;29;20055;-91
2021/10/12 10:11:15;;;;;;;;;;;12.90;99.90;;;;;;4945085;28;20143;-91
2021/10/12 10:13:50;;;;;;;11.32;6.22;;;13.00;99.90;;;;;;4935582;28;19910;-90
2021/10/12 10:16:54;;;;;;;8.25;5.28;;;13.10;99.90;;;;;;4959055;28;20027;-91
2021/10/12 10:26:36;;;;;;;8.05;4.70;;;13.30;99.90;;;;;;4967630;28;20113;-91
2021/10/12 10:32:59;;;;;;;7.43;3.40;;;13.40;99.90;;;;;;4923821;29;20040;-90
2021/10/12 10:35:47;;;;;;;6.07;3.08;;;13.50;99.90;;;;;;4937413;28;20036;-92
2021/10/12 10:38:49;;;;;;;5.57;2.90;;;13.50;99.90;;;;;;4942048;28;20086;-92
2021/10/12 10:41:52;;;;;;;5.15;2.75;;;13.60;99.90;;;;;;5009671;28;20080;-92
2021/10/12 10:47:44;;;;;;;3.67;2.35;;;13.60;99.90;;;;;;4948475;29;20042;-92
2021/10/12 10:54:29;;;;;;;3.70;2.17;;;13.70;99.90;;;;;;4948139;29;20074;-92
2021/10/12 10:57:39;;;;;;;6.63;2.55;;;13.70;99.90;;;;;;4984955;28;20075;-92
2021/10/12 11:03:25;;;;;;;5.57;2.47;;;13.80;99.90;;;;;;5002816;28;20017;-91
2021/10/12 11:06:22;;;;;;;3.58;2.00;;;13.80;99.90;;;;;;4999828;28;20030;-92
2021/10/12 11:09:14;;;;;;;4.90;2.30;;;13.80;99.90;;;;;;5013899;28;20133;-90
2021/10/12 11:11:44;;;;;;;4.50;2.13;;;13.80;99.90;;;;;;5003020;28;20497;-87
2021/10/12 11:14:09;;;;;;;3.92;2.05;;;13.80;99.90;;;;;;5019805;28;20024;-88
2021/10/12 11:17:04;;;;;;;6.68;2.38;;;13.90;99.90;;;;;;5003644;28;20022;-87
2021/10/12 11:19:30;;;;;;;5.43;2.25;;;13.90;99.90;;;;;;4992006;28;20406;-87
2021/10/12 11:21:56;;;;;;;3.97;2.25;;;14.00;99.90;;;;;;5003066;28;20037;-88
2021/10/12 11:24:22;;;;;;;4.68;2.00;;;14.00;99.90;;;;;;5002982;28;20026;-87
2021/10/12 11:26:57;;;;;;;3.25;1.90;;;14.10;99.90;;;;;;5002942;28;20040;-88
2021/10/12 11:29:24;;;;;;;2.92;1.70;;;14.10;99.90;;;;;;5002684;28;20036;-88
2021/10/12 11:32:04;;;;;;;2.35;1.20;;;14.10;99.90;;;;;;4999604;28;20365;-87
2021/10/12 11:34:31;;;;;;;1.98;1.27;;;14.20;99.90;;;;;;5003405;28;20112;-88
2021/10/12 11:37:07;;;;;;;2.92;1.50;;;14.30;99.90;;;;;;5003252;28;20120;-87
2021/10/12 11:39:33;;;;;;;3.97;1.80;;;14.30;99.90;;;;;;5019209;28;20053;-88
2021/10/12 11:42:06;;;;;;;2.42;1.35;;;14.40;99.90;;;;;;5003046;28;20028;-88
2021/10/12 11:44:33;;;;;;;3.58;1.50;;;14.40;99.90;;;;;;5018619;28;20132;-88
2021/10/12 11:47:03;;;;;;;3.70;1.67;;;14.50;99.90;;;;;;5019869;28;20064;-88
2021/10/12 11:49:39;;;;;;;2.92;1.40;;;14.50;99.90;;;;;;5012956;28;20037;-88
2021/10/12 11:52:11;;;;;;;4.18;1.50;;;14.50;99.90;;;;;;5018621;28;20048;-88
2021/10/12 11:54:37;;;;;;;1.30;1.10;;;14.50;99.90;;;;;;5017562;28;20029;-87
2021/10/12 11:57:16;;;;;;;3.45;1.50;;;14.60;99.90;;;;;;4998261;28;20088;-88
2021/10/12 11:59:48;;;;;;;2.03;0.85;;;14.60;99.90;;;;;;5010010;28;20533;-91
2021/10/12 12:02:18;;;;;;;2.10;0.70;;;14.60;99.90;;;;;;5014881;28;20025;-91
2021/10/12 12:04:47;;;;;;;2.08;0.73;;;14.60;99.90;;;;;;5003190;28;20025;-90
2021/10/12 12:07:14;;;;;;;0.55;0.55;;;14.60;99.90;;;;;;5018260;28;20029;-91
2021/10/12 12:09:42;;;;;;;1.42;0.90;;;14.60;99.90;;;;;;5018062;28;20307;-90
2021/10/12 12:12:08;;;;;;;0.90;0.52;;;14.60;99.90;;;;;;5017513;28;20037;-90
2021/10/12 12:14:34;;;;;;;1.67;0.60;;;14.60;99.90;;;;;;5018251;28;20068;-91
2021/10/12 12:17:13;;;;;;;2.00;0.80;;;14.60;99.90;;;;;;5017870;28;20060;-90
2021/10/12 12:19:44;;;;;;;2.22;0.80;;;14.70;99.90;;;;;;5019854;28;20089;-91
2021/10/12 12:22:28;;;;;;;1.48;0.60;;;14.70;99.90;;;;;;5018192;28;20021;-92
2021/10/12 12:24:53;;;;;;;2.40;0.70;;;14.80;99.90;;;;;;5002330;28;20032;-89
2021/10/12 12:27:19;;;;;;;1.15;0.63;;;14.80;99.90;;;;;;5009144;28;20029;-87
2021/10/12 12:29:55;;;;;;;2.75;0.75;;;14.80;99.90;;;;;;5003083;28;20029;-87
2021/10/12 12:32:21;;;;;;;1.05;0.65;;;14.80;99.90;;;;;;5003439;28;20022;-86
2021/10/12 12:35:00;;;;;;;1.13;0.70;;;14.80;99.90;;;;;;5004274;28;20351;-87
2021/10/12 12:37:27;;;;;;;3.38;0.90;;;14.90;99.90;;;;;;5019157;28;20029;-86
2021/10/12 12:39:53;;;;;;;2.58;0.80;;;14.90;99.90;;;;;;4999447;28;20038;-86
2021/10/12 12:42:39;;;;;;;3.35;0.80;;;14.90;99.90;;;;;;5018517;28;20104;-87
2021/10/12 12:45:09;;;;;;;2.08;0.80;;;14.90;99.90;;;;;;5018329;28;20112;-87
2021/10/12 12:47:35;;;;;;;2.30;0.82;;;15.00;99.90;;;;;;5017597;28;20111;-86
2021/10/12 12:50:11;;;;;;;4.00;0.90;;;15.00;99.90;;;;;;5017539;28;20051;-87
2021/10/12 12:52:37;;;;;;;2.53;0.75;;;15.00;99.90;;;;;;4988991;28;20017;-88
2021/10/12 12:55:03;;;;;;;3.20;0.68;;;15.00;99.90;;;;;;5017964;28;20156;-87
2021/10/12 12:57:31;;;;;;;2.15;0.70;;;15.00;99.90;;;;;;5001847;28;20421;-88
2021/10/12 13:00:02;;;;;;;2.70;1.17;;;14.90;99.90;;;;;;5017633;28;20033;-88
2021/10/12 13:02:28;;;;;;;3.92;0.93;;;14.90;99.90;;;;;;5017464;28;20529;-88
2021/10/12 13:04:54;;;;;;;5.82;1.90;;;14.90;99.90;;;;;;5001326;28;20021;-87
2021/10/12 13:07:23;;;;;;;3.28;1.15;;;14.80;99.90;;;;;;5018202;28;20041;-88
2021/10/12 13:09:51;;;;;;;3.40;1.17;;;14.80;99.90;;;;;;5017532;28;20021;-88
2021/10/12 13:12:23;;;;;;;2.40;1.00;;;14.80;99.90;;;;;;5016367;28;20113;-87
2021/10/12 13:14:50;;;;;;;3.97;1.30;;;14.80;99.90;;;;;;5001359;28;20033;-87
2021/10/12 13:20:39;;;;;;;3.22;0.90;;;14.80;99.90;;;;;;5024260;28;20078;-87
2021/10/12 13:23:05;;;;;;;6.85;1.33;;;14.90;99.90;;;;;;4998778;28;20022;-87
2021/10/12 13:25:30;;;;;;;4.78;1.50;;;14.90;99.90;;;;;;5017672;28;20017;-87
2021/10/12 13:27:56;;;;;;;4.43;1.10;;;14.90;99.90;;;;;;5001519;28;20025;-87
2021/10/12 13:30:22;;;;;;;2.97;1.20;;;15.00;99.90;;;;;;5017599;28;20025;-88
2021/10/12 13:32:48;;;;;;;3.97;0.90;;;15.00;99.90;;;;;;5003743;28;20381;-87
2021/10/12 13:35:14;;;;;;;3.92;0.90;;;15.00;99.90;;;;;;5025275;28;20437;-87
2021/10/12 13:37:41;;;;;;;2.92;0.90;;;15.10;99.90;;;;;;5018274;28;20109;-86
2021/10/12 13:40:11;;;;;;;3.78;0.90;;;15.10;99.90;;;;;;5034562;28;20025;-87
2021/10/12 13:42:41;;;;;;;2.20;0.80;;;15.20;99.90;;;;;;4999568;28;20022;-87
2021/10/12 13:45:12;;;;;;;3.88;0.70;;;15.10;99.90;;;;;;5019179;28;20029;-87
2021/10/12 13:47:39;;;;;;;;;;;15.20;99.90;;;;;;5017046;28;20018;-88
2021/10/12 13:50:05;;;;;;;3.65;0.55;;;15.10;99.90;;;;;;5006619;28;19897;-87
2021/10/12 13:52:48;;;;;;;2.50;0.88;;;15.10;99.90;;;;;;4992667;28;20119;-87
2021/10/12 13:55:13;;;;;;;3.08;0.90;;;15.00;99.90;;;;;;5017604;28;20033;-87
2021/10/12 13:57:40;;;;;;;4.45;0.85;;;15.00;99.90;;;;;;5000451;28;20422;-87